sensor_id;sensor_type;location;lat;lon;timestamp;P1;durP1;ratioP1;P2;durP2;ratioP2
5585;SDS011;2815;54.094;12.112;2023-02-15T00:01:38;34.10;;;13.38;;
5585;SDS011;2815;54.094;12.112;2023-02-15T00:04:06;42.85;;;15.30;;
5585;SDS011;2815;54.094;12.112;2023-02-15T00:06:35;39.72;;;14.68;;
5585;SDS011;2815;54.094;12.112;2023-02-15T00:09:03;45.53;;;15.70;;
5585;SDS011;2815;54.094;12.112;2023-02-15T00:11:31;47.50;;;15.68;;
5585;SDS011;2815;54.094;12.112;2023-02-15T00:14:11;42.75;;;14.95;;
5585;SDS011;2815;54.094;12.112;2023-02-15T00:16:40;41.30;;;16.08;;
5585;SDS011;2815;54.094;12.112;2023-02-15T00:19:09;42.80;;;14.30;;
5585;SDS011;2815;54.094;12.112;2023-02-15T00:21:38;45.15;;;16.42;;
5585;SDS011;2815;54.094;12.112;2023-02-15T00:24:07;42.65;;;15.32;;
5585;SDS011;2815;54.094;12.112;2023-02-15T00:26:37;44.97;;;15.60;;
5585;SDS011;2815;54.094;12.112;2023-02-15T00:29:06;48.03;;;16.40;;
5585;SDS011;2815;54.094;12.112;2023-02-15T00:31:36;42.15;;;15.65;;
5585;SDS011;2815;54.094;12.112;2023-02-15T00:34:05;39.95;;;14.32;;
5585;SDS011;2815;54.094;12.112;2023-02-15T00:36:34;36.65;;;13.48;;
5585;SDS011;2815;54.094;12.112;2023-02-15T00:39:02;44.75;;;16.42;;
5585;SDS011;2815;54.094;12.112;2023-02-15T00:41:31;50.08;;;16.52;;
5585;SDS011;2815;54.094;12.112;2023-02-15T00:44:00;45.55;;;15.98;;
5585;SDS011;2815;54.094;12.112;2023-02-15T00:46:28;43.10;;;17.05;;
5585;SDS011;2815;54.094;12.112;2023-02-15T00:48:58;44.90;;;16.45;;
5585;SDS011;2815;54.094;12.112;2023-02-15T00:51:26;49.15;;;15.80;;
5585;SDS011;2815;54.094;12.112;2023-02-15T00:53:54;47.15;;;16.48;;
5585;SDS011;2815;54.094;12.112;2023-02-15T00:56:22;46.50;;;17.27;;
5585;SDS011;2815;54.094;12.112;2023-02-15T00:58:50;41.72;;;15.68;;
5585;SDS011;2815;54.094;12.112;2023-02-15T01:01:19;48.10;;;16.80;;
5585;SDS011;2815;54.094;12.112;2023-02-15T01:03:50;40.67;;;16.02;;
5585;SDS011;2815;54.094;12.112;2023-02-15T01:06:19;39.60;;;15.63;;
5585;SDS011;2815;54.094;12.112;2023-02-15T01:08:47;49.65;;;16.63;;
5585;SDS011;2815;54.094;12.112;2023-02-15T01:11:15;43.67;;;16.77;;
5585;SDS011;2815;54.094;12.112;2023-02-15T01:13:49;49.85;;;17.10;;
5585;SDS011;2815;54.094;12.112;2023-02-15T01:16:18;44.72;;;17.17;;
5585;SDS011;2815;54.094;12.112;2023-02-15T01:18:47;40.63;;;15.32;;
5585;SDS011;2815;54.094;12.112;2023-02-15T01:21:16;51.88;;;16.33;;
5585;SDS011;2815;54.094;12.112;2023-02-15T01:23:47;37.85;;;14.25;;
5585;SDS011;2815;54.094;12.112;2023-02-15T01:26:15;47.00;;;16.35;;
5585;SDS011;2815;54.094;12.112;2023-02-15T01:28:44;44.30;;;17.23;;
5585;SDS011;2815;54.094;12.112;2023-02-15T01:31:12;45.90;;;15.88;;
5585;SDS011;2815;54.094;12.112;2023-02-15T01:33:44;43.83;;;15.70;;
5585;SDS011;2815;54.094;12.112;2023-02-15T01:36:12;43.50;;;15.45;;
5585;SDS011;2815;54.094;12.112;2023-02-15T01:38:40;45.97;;;16.63;;
5585;SDS011;2815;54.094;12.112;2023-02-15T01:41:10;48.50;;;17.42;;
5585;SDS011;2815;54.094;12.112;2023-02-15T01:43:54;47.58;;;15.88;;
5585;SDS011;2815;54.094;12.112;2023-02-15T01:46:24;42.95;;;16.23;;
5585;SDS011;2815;54.094;12.112;2023-02-15T01:48:56;48.00;;;16.45;;
5585;SDS011;2815;54.094;12.112;2023-02-15T01:51:30;43.05;;;17.23;;
5585;SDS011;2815;54.094;12.112;2023-02-15T01:53:59;42.92;;;15.85;;
5585;SDS011;2815;54.094;12.112;2023-02-15T01:56:32;49.65;;;16.70;;
5585;SDS011;2815;54.094;12.112;2023-02-15T01:59:02;46.75;;;16.40;;
5585;SDS011;2815;54.094;12.112;2023-02-15T02:04:04;42.83;;;15.07;;
5585;SDS011;2815;54.094;12.112;2023-02-15T02:06:34;39.35;;;14.50;;
5585;SDS011;2815;54.094;12.112;2023-02-15T02:09:05;41.97;;;16.02;;
5585;SDS011;2815;54.094;12.112;2023-02-15T02:11:35;42.70;;;16.85;;
5585;SDS011;2815;54.094;12.112;2023-02-15T02:14:03;45.28;;;16.70;;
5585;SDS011;2815;54.094;12.112;2023-02-15T02:16:34;48.30;;;15.38;;
5585;SDS011;2815;54.094;12.112;2023-02-15T02:19:18;46.00;;;17.02;;
5585;SDS011;2815;54.094;12.112;2023-02-15T02:22:15;41.55;;;16.08;;
5585;SDS011;2815;54.094;12.112;2023-02-15T02:25:06;41.60;;;16.13;;
5585;SDS011;2815;54.094;12.112;2023-02-15T02:27:44;45.78;;;16.92;;
5585;SDS011;2815;54.094;12.112;2023-02-15T02:30:22;47.88;;;18.70;;
5585;SDS011;2815;54.094;12.112;2023-02-15T02:36:08;50.30;;;16.48;;
5585;SDS011;2815;54.094;12.112;2023-02-15T02:38:46;47.83;;;16.83;;
5585;SDS011;2815;54.094;12.112;2023-02-15T02:41:20;49.00;;;17.25;;
5585;SDS011;2815;54.094;12.112;2023-02-15T02:43:54;43.90;;;17.00;;
5585;SDS011;2815;54.094;12.112;2023-02-15T02:46:32;47.95;;;17.30;;
5585;SDS011;2815;54.094;12.112;2023-02-15T02:49:01;38.58;;;16.55;;
5585;SDS011;2815;54.094;12.112;2023-02-15T02:51:31;44.47;;;16.67;;
5585;SDS011;2815;54.094;12.112;2023-02-15T02:54:00;49.33;;;17.45;;
5585;SDS011;2815;54.094;12.112;2023-02-15T02:56:29;47.05;;;17.92;;
5585;SDS011;2815;54.094;12.112;2023-02-15T02:59:00;42.20;;;16.67;;
5585;SDS011;2815;54.094;12.112;2023-02-15T03:01:31;45.60;;;16.65;;
5585;SDS011;2815;54.094;12.112;2023-02-15T03:04:01;42.50;;;15.85;;
5585;SDS011;2815;54.094;12.112;2023-02-15T03:06:35;44.17;;;15.80;;
5585;SDS011;2815;54.094;12.112;2023-02-15T03:09:08;43.90;;;16.75;;
5585;SDS011;2815;54.094;12.112;2023-02-15T03:11:41;46.92;;;16.45;;
5585;SDS011;2815;54.094;12.112;2023-02-15T03:14:11;43.28;;;16.05;;
5585;SDS011;2815;54.094;12.112;2023-02-15T03:16:40;51.50;;;17.65;;
5585;SDS011;2815;54.094;12.112;2023-02-15T03:19:12;53.42;;;17.40;;
5585;SDS011;2815;54.094;12.112;2023-02-15T03:21:45;46.40;;;17.02;;
5585;SDS011;2815;54.094;12.112;2023-02-15T03:24:17;43.90;;;15.88;;
5585;SDS011;2815;54.094;12.112;2023-02-15T03:26:50;46.97;;;16.75;;
5585;SDS011;2815;54.094;12.112;2023-02-15T03:29:19;49.28;;;16.90;;
5585;SDS011;2815;54.094;12.112;2023-02-15T03:31:51;46.35;;;17.45;;
5585;SDS011;2815;54.094;12.112;2023-02-15T03:34:21;43.92;;;16.95;;
5585;SDS011;2815;54.094;12.112;2023-02-15T03:36:52;48.08;;;16.55;;
5585;SDS011;2815;54.094;12.112;2023-02-15T03:39:25;46.83;;;16.27;;
5585;SDS011;2815;54.094;12.112;2023-02-15T03:41:58;44.78;;;17.27;;
5585;SDS011;2815;54.094;12.112;2023-02-15T03:44:32;45.00;;;17.83;;
5585;SDS011;2815;54.094;12.112;2023-02-15T03:47:04;42.55;;;15.95;;
5585;SDS011;2815;54.094;12.112;2023-02-15T03:49:36;45.75;;;16.58;;
5585;SDS011;2815;54.094;12.112;2023-02-15T03:52:09;46.83;;;16.38;;
5585;SDS011;2815;54.094;12.112;2023-02-15T03:54:37;46.88;;;16.63;;
5585;SDS011;2815;54.094;12.112;2023-02-15T03:57:14;46.25;;;16.63;;
5585;SDS011;2815;54.094;12.112;2023-02-15T04:00:02;48.17;;;18.77;;
5585;SDS011;2815;54.094;12.112;2023-02-15T04:05:46;48.85;;;17.05;;
5585;SDS011;2815;54.094;12.112;2023-02-15T04:08:15;43.55;;;16.48;;
5585;SDS011;2815;54.094;12.112;2023-02-15T04:10:43;48.72;;;17.00;;
5585;SDS011;2815;54.094;12.112;2023-02-15T04:13:20;51.50;;;17.92;;
5585;SDS011;2815;54.094;12.112;2023-02-15T04:15:48;52.15;;;17.48;;
5585;SDS011;2815;54.094;12.112;2023-02-15T04:18:34;56.05;;;18.65;;
5585;SDS011;2815;54.094;12.112;2023-02-15T04:21:21;45.88;;;16.75;;
5585;SDS011;2815;54.094;12.112;2023-02-15T04:24:09;48.53;;;18.05;;
5585;SDS011;2815;54.094;12.112;2023-02-15T04:26:54;49.80;;;17.92;;
5585;SDS011;2815;54.094;12.112;2023-02-15T04:29:23;44.08;;;16.52;;
5585;SDS011;2815;54.094;12.112;2023-02-15T04:31:52;48.70;;;18.33;;
5585;SDS011;2815;54.094;12.112;2023-02-15T04:34:20;48.55;;;18.13;;
5585;SDS011;2815;54.094;12.112;2023-02-15T04:36:48;48.15;;;17.45;;
5585;SDS011;2815;54.094;12.112;2023-02-15T04:39:18;52.00;;;17.60;;
5585;SDS011;2815;54.094;12.112;2023-02-15T04:41:46;48.53;;;17.42;;
5585;SDS011;2815;54.094;12.112;2023-02-15T04:44:15;46.65;;;17.90;;
5585;SDS011;2815;54.094;12.112;2023-02-15T04:46:44;53.75;;;19.92;;
5585;SDS011;2815;54.094;12.112;2023-02-15T04:49:12;53.40;;;18.15;;
5585;SDS011;2815;54.094;12.112;2023-02-15T04:51:40;55.88;;;18.85;;
5585;SDS011;2815;54.094;12.112;2023-02-15T04:54:07;44.65;;;17.80;;
5585;SDS011;2815;54.094;12.112;2023-02-15T04:56:39;49.95;;;18.05;;
5585;SDS011;2815;54.094;12.112;2023-02-15T04:59:08;46.53;;;18.08;;
5585;SDS011;2815;54.094;12.112;2023-02-15T05:01:37;51.20;;;17.85;;
5585;SDS011;2815;54.094;12.112;2023-02-15T05:04:05;45.55;;;17.13;;
5585;SDS011;2815;54.094;12.112;2023-02-15T05:06:33;55.35;;;18.60;;
5585;SDS011;2815;54.094;12.112;2023-02-15T05:09:01;48.40;;;16.75;;
5585;SDS011;2815;54.094;12.112;2023-02-15T05:11:29;46.03;;;16.98;;
5585;SDS011;2815;54.094;12.112;2023-02-15T05:13:58;42.33;;;15.88;;
5585;SDS011;2815;54.094;12.112;2023-02-15T05:16:26;47.05;;;15.90;;
5585;SDS011;2815;54.094;12.112;2023-02-15T05:18:55;46.28;;;16.40;;
5585;SDS011;2815;54.094;12.112;2023-02-15T05:21:22;52.50;;;17.50;;
5585;SDS011;2815;54.094;12.112;2023-02-15T05:23:50;49.90;;;18.60;;
5585;SDS011;2815;54.094;12.112;2023-02-15T05:26:19;47.38;;;17.05;;
5585;SDS011;2815;54.094;12.112;2023-02-15T05:29:07;54.78;;;15.85;;
5585;SDS011;2815;54.094;12.112;2023-02-15T05:31:35;45.45;;;16.55;;
5585;SDS011;2815;54.094;12.112;2023-02-15T05:34:03;49.85;;;17.40;;
5585;SDS011;2815;54.094;12.112;2023-02-15T05:36:31;49.50;;;18.02;;
5585;SDS011;2815;54.094;12.112;2023-02-15T05:38:59;47.53;;;18.52;;
5585;SDS011;2815;54.094;12.112;2023-02-15T05:41:27;47.85;;;18.10;;
5585;SDS011;2815;54.094;12.112;2023-02-15T05:43:55;50.90;;;18.00;;
5585;SDS011;2815;54.094;12.112;2023-02-15T05:46:24;49.72;;;17.63;;
5585;SDS011;2815;54.094;12.112;2023-02-15T05:48:52;49.45;;;16.38;;
5585;SDS011;2815;54.094;12.112;2023-02-15T05:51:20;46.05;;;17.58;;
5585;SDS011;2815;54.094;12.112;2023-02-15T05:53:48;41.92;;;16.20;;
5585;SDS011;2815;54.094;12.112;2023-02-15T05:56:16;49.97;;;16.75;;
5585;SDS011;2815;54.094;12.112;2023-02-15T05:58:44;42.83;;;15.15;;
5585;SDS011;2815;54.094;12.112;2023-02-15T06:01:13;37.40;;;14.38;;
5585;SDS011;2815;54.094;12.112;2023-02-15T06:03:43;50.72;;;17.08;;
5585;SDS011;2815;54.094;12.112;2023-02-15T06:06:11;37.63;;;14.57;;
5585;SDS011;2815;54.094;12.112;2023-02-15T06:08:39;51.55;;;16.17;;
5585;SDS011;2815;54.094;12.112;2023-02-15T06:11:07;33.33;;;12.38;;
5585;SDS011;2815;54.094;12.112;2023-02-15T06:13:35;46.72;;;15.60;;
5585;SDS011;2815;54.094;12.112;2023-02-15T06:16:04;37.13;;;14.30;;
5585;SDS011;2815;54.094;12.112;2023-02-15T06:18:32;44.22;;;14.98;;
5585;SDS011;2815;54.094;12.112;2023-02-15T06:21:02;37.42;;;12.88;;
5585;SDS011;2815;54.094;12.112;2023-02-15T06:23:30;49.60;;;16.33;;
5585;SDS011;2815;54.094;12.112;2023-02-15T06:25:58;48.05;;;16.67;;
5585;SDS011;2815;54.094;12.112;2023-02-15T06:28:26;38.67;;;15.02;;
5585;SDS011;2815;54.094;12.112;2023-02-15T06:30:54;50.83;;;17.40;;
5585;SDS011;2815;54.094;12.112;2023-02-15T06:33:22;52.53;;;16.70;;
5585;SDS011;2815;54.094;12.112;2023-02-15T06:35:50;48.25;;;16.77;;
5585;SDS011;2815;54.094;12.112;2023-02-15T06:38:20;40.13;;;13.85;;
5585;SDS011;2815;54.094;12.112;2023-02-15T06:40:48;42.50;;;16.45;;
5585;SDS011;2815;54.094;12.112;2023-02-15T06:43:16;34.35;;;12.82;;
5585;SDS011;2815;54.094;12.112;2023-02-15T06:45:44;46.70;;;17.10;;
5585;SDS011;2815;54.094;12.112;2023-02-15T06:48:12;41.53;;;13.85;;
5585;SDS011;2815;54.094;12.112;2023-02-15T06:50:40;43.40;;;15.30;;
5585;SDS011;2815;54.094;12.112;2023-02-15T06:53:08;44.22;;;15.88;;
5585;SDS011;2815;54.094;12.112;2023-02-15T06:55:38;42.53;;;16.00;;
5585;SDS011;2815;54.094;12.112;2023-02-15T06:58:06;50.33;;;16.98;;
5585;SDS011;2815;54.094;12.112;2023-02-15T07:00:34;51.55;;;16.27;;
5585;SDS011;2815;54.094;12.112;2023-02-15T07:03:02;51.05;;;16.90;;
5585;SDS011;2815;54.094;12.112;2023-02-15T07:05:32;50.03;;;16.95;;
5585;SDS011;2815;54.094;12.112;2023-02-15T07:08:01;46.08;;;15.60;;
5585;SDS011;2815;54.094;12.112;2023-02-15T07:10:29;38.28;;;14.85;;
5585;SDS011;2815;54.094;12.112;2023-02-15T07:12:58;45.88;;;16.27;;
5585;SDS011;2815;54.094;12.112;2023-02-15T07:15:25;50.45;;;16.52;;
5585;SDS011;2815;54.094;12.112;2023-02-15T07:17:53;44.63;;;15.63;;
5585;SDS011;2815;54.094;12.112;2023-02-15T07:20:22;47.58;;;15.73;;
5585;SDS011;2815;54.094;12.112;2023-02-15T07:22:50;43.35;;;15.70;;
5585;SDS011;2815;54.094;12.112;2023-02-15T07:25:18;44.95;;;15.85;;
5585;SDS011;2815;54.094;12.112;2023-02-15T07:27:46;53.13;;;17.27;;
5585;SDS011;2815;54.094;12.112;2023-02-15T07:30:16;44.90;;;16.50;;
5585;SDS011;2815;54.094;12.112;2023-02-15T07:32:44;42.47;;;14.98;;
5585;SDS011;2815;54.094;12.112;2023-02-15T07:35:31;49.53;;;16.50;;
5585;SDS011;2815;54.094;12.112;2023-02-15T07:37:59;53.13;;;17.60;;
5585;SDS011;2815;54.094;12.112;2023-02-15T07:40:27;51.72;;;17.85;;
5585;SDS011;2815;54.094;12.112;2023-02-15T07:42:57;35.83;;;15.15;;
5585;SDS011;2815;54.094;12.112;2023-02-15T07:45:27;42.35;;;15.35;;
5585;SDS011;2815;54.094;12.112;2023-02-15T07:47:55;56.53;;;16.88;;
5585;SDS011;2815;54.094;12.112;2023-02-15T07:50:22;51.42;;;17.42;;
5585;SDS011;2815;54.094;12.112;2023-02-15T07:52:50;53.08;;;15.82;;
5585;SDS011;2815;54.094;12.112;2023-02-15T07:55:18;57.45;;;18.33;;
5585;SDS011;2815;54.094;12.112;2023-02-15T07:57:47;46.20;;;15.07;;
5585;SDS011;2815;54.094;12.112;2023-02-15T08:00:17;40.30;;;14.77;;
5585;SDS011;2815;54.094;12.112;2023-02-15T08:02:48;51.17;;;17.13;;
5585;SDS011;2815;54.094;12.112;2023-02-15T08:05:37;29.48;;;13.02;;
5585;SDS011;2815;54.094;12.112;2023-02-15T08:08:05;50.00;;;16.27;;
5585;SDS011;2815;54.094;12.112;2023-02-15T08:10:33;53.20;;;16.45;;
5585;SDS011;2815;54.094;12.112;2023-02-15T08:13:20;50.00;;;17.05;;
5585;SDS011;2815;54.094;12.112;2023-02-15T08:15:49;40.63;;;15.68;;
5585;SDS011;2815;54.094;12.112;2023-02-15T08:18:18;57.20;;;16.13;;
5585;SDS011;2815;54.094;12.112;2023-02-15T08:20:48;50.83;;;17.08;;
5585;SDS011;2815;54.094;12.112;2023-02-15T08:23:16;48.92;;;17.02;;
5585;SDS011;2815;54.094;12.112;2023-02-15T08:25:44;41.78;;;16.77;;
5585;SDS011;2815;54.094;12.112;2023-02-15T08:28:12;52.35;;;17.38;;
5585;SDS011;2815;54.094;12.112;2023-02-15T08:30:40;49.95;;;17.75;;
5585;SDS011;2815;54.094;12.112;2023-02-15T08:33:08;49.03;;;17.75;;
5585;SDS011;2815;54.094;12.112;2023-02-15T08:35:38;59.00;;;19.60;;
5585;SDS011;2815;54.094;12.112;2023-02-15T08:38:06;55.85;;;19.02;;
5585;SDS011;2815;54.094;12.112;2023-02-15T08:40:34;55.70;;;19.52;;
5585;SDS011;2815;54.094;12.112;2023-02-15T08:43:04;56.95;;;18.92;;
5585;SDS011;2815;54.094;12.112;2023-02-15T08:45:35;55.00;;;19.60;;
5585;SDS011;2815;54.094;12.112;2023-02-15T08:48:04;50.38;;;18.65;;
5585;SDS011;2815;54.094;12.112;2023-02-15T08:50:32;56.65;;;18.33;;
5585;SDS011;2815;54.094;12.112;2023-02-15T08:53:01;56.15;;;18.65;;
5585;SDS011;2815;54.094;12.112;2023-02-15T08:55:30;54.15;;;18.75;;
5585;SDS011;2815;54.094;12.112;2023-02-15T08:57:58;44.92;;;16.42;;
5585;SDS011;2815;54.094;12.112;2023-02-15T09:00:26;47.20;;;17.08;;
5585;SDS011;2815;54.094;12.112;2023-02-15T09:02:54;44.58;;;16.42;;
5585;SDS011;2815;54.094;12.112;2023-02-15T09:05:22;35.80;;;13.35;;
5585;SDS011;2815;54.094;12.112;2023-02-15T09:07:50;26.35;;;11.65;;
5585;SDS011;2815;54.094;12.112;2023-02-15T09:10:21;34.13;;;12.48;;
5585;SDS011;2815;54.094;12.112;2023-02-15T09:12:52;34.55;;;13.77;;
5585;SDS011;2815;54.094;12.112;2023-02-15T09:15:21;46.75;;;16.38;;
5585;SDS011;2815;54.094;12.112;2023-02-15T09:17:51;34.85;;;13.73;;
5585;SDS011;2815;54.094;12.112;2023-02-15T09:20:19;44.97;;;15.00;;
5585;SDS011;2815;54.094;12.112;2023-02-15T09:22:46;44.35;;;16.48;;
5585;SDS011;2815;54.094;12.112;2023-02-15T09:25:14;37.55;;;13.73;;
5585;SDS011;2815;54.094;12.112;2023-02-15T09:27:44;36.83;;;14.10;;
5585;SDS011;2815;54.094;12.112;2023-02-15T09:30:12;44.42;;;15.13;;
5585;SDS011;2815;54.094;12.112;2023-02-15T09:32:41;45.92;;;17.10;;
5585;SDS011;2815;54.094;12.112;2023-02-15T09:35:09;41.72;;;17.27;;
5585;SDS011;2815;54.094;12.112;2023-02-15T09:37:37;43.88;;;17.15;;
5585;SDS011;2815;54.094;12.112;2023-02-15T09:40:05;46.20;;;17.63;;
5585;SDS011;2815;54.094;12.112;2023-02-15T09:42:41;37.65;;;15.05;;
5585;SDS011;2815;54.094;12.112;2023-02-15T09:45:33;39.25;;;15.63;;
5585;SDS011;2815;54.094;12.112;2023-02-15T09:48:23;34.78;;;14.60;;
5585;SDS011;2815;54.094;12.112;2023-02-15T09:51:13;45.10;;;18.83;;
5585;SDS011;2815;54.094;12.112;2023-02-15T09:53:51;45.08;;;16.75;;
5585;SDS011;2815;54.094;12.112;2023-02-15T09:56:28;38.30;;;17.45;;
5585;SDS011;2815;54.094;12.112;2023-02-15T09:59:06;45.67;;;17.17;;
5585;SDS011;2815;54.094;12.112;2023-02-15T10:01:40;35.45;;;13.80;;
5585;SDS011;2815;54.094;12.112;2023-02-15T10:04:18;37.47;;;14.70;;
5585;SDS011;2815;54.094;12.112;2023-02-15T10:06:56;38.95;;;14.43;;
5585;SDS011;2815;54.094;12.112;2023-02-15T10:09:34;41.10;;;16.50;;
5585;SDS011;2815;54.094;12.112;2023-02-15T10:12:11;47.13;;;16.55;;
5585;SDS011;2815;54.094;12.112;2023-02-15T10:17:57;39.08;;;14.68;;
5585;SDS011;2815;54.094;12.112;2023-02-15T10:20:34;45.38;;;15.57;;
5585;SDS011;2815;54.094;12.112;2023-02-15T10:25:41;45.75;;;16.65;;
5585;SDS011;2815;54.094;12.112;2023-02-15T10:28:15;37.00;;;13.55;;
5585;SDS011;2815;54.094;12.112;2023-02-15T10:30:47;49.72;;;16.80;;
5585;SDS011;2815;54.094;12.112;2023-02-15T10:33:24;46.55;;;18.17;;
5585;SDS011;2815;54.094;12.112;2023-02-15T10:36:06;54.28;;;18.60;;
5585;SDS011;2815;54.094;12.112;2023-02-15T10:38:44;51.80;;;18.35;;
5585;SDS011;2815;54.094;12.112;2023-02-15T10:41:18;52.40;;;19.02;;
5585;SDS011;2815;54.094;12.112;2023-02-15T10:44:03;38.30;;;14.55;;
5585;SDS011;2815;54.094;12.112;2023-02-15T10:46:51;56.47;;;18.95;;
5585;SDS011;2815;54.094;12.112;2023-02-15T10:49:31;52.33;;;17.40;;
5585;SDS011;2815;54.094;12.112;2023-02-15T10:52:11;59.15;;;19.73;;
5585;SDS011;2815;54.094;12.112;2023-02-15T10:54:45;49.55;;;17.65;;
5585;SDS011;2815;54.094;12.112;2023-02-15T10:57:18;52.17;;;16.30;;
5585;SDS011;2815;54.094;12.112;2023-02-15T10:59:57;43.63;;;15.45;;
5585;SDS011;2815;54.094;12.112;2023-02-15T11:02:36;47.42;;;15.95;;
5585;SDS011;2815;54.094;12.112;2023-02-15T11:05:20;69.30;;;21.85;;
5585;SDS011;2815;54.094;12.112;2023-02-15T11:07:54;60.17;;;20.63;;
5585;SDS011;2815;54.094;12.112;2023-02-15T11:10:27;36.83;;;15.27;;
5585;SDS011;2815;54.094;12.112;2023-02-15T11:12:58;61.15;;;19.85;;
5585;SDS011;2815;54.094;12.112;2023-02-15T11:15:32;53.00;;;17.42;;
5585;SDS011;2815;54.094;12.112;2023-02-15T11:18:05;62.08;;;20.23;;
5585;SDS011;2815;54.094;12.112;2023-02-15T11:20:40;56.53;;;19.55;;
5585;SDS011;2815;54.094;12.112;2023-02-15T11:23:12;61.03;;;19.60;;
5585;SDS011;2815;54.094;12.112;2023-02-15T11:25:43;59.67;;;19.02;;
5585;SDS011;2815;54.094;12.112;2023-02-15T11:28:16;55.67;;;19.75;;
5585;SDS011;2815;54.094;12.112;2023-02-15T11:30:47;59.42;;;18.92;;
5585;SDS011;2815;54.094;12.112;2023-02-15T11:33:20;66.00;;;20.67;;
5585;SDS011;2815;54.094;12.112;2023-02-15T11:35:51;57.30;;;19.33;;
5585;SDS011;2815;54.094;12.112;2023-02-15T11:38:22;54.22;;;18.50;;
5585;SDS011;2815;54.094;12.112;2023-02-15T11:40:53;63.92;;;20.25;;
5585;SDS011;2815;54.094;12.112;2023-02-15T11:43:24;49.63;;;18.38;;
5585;SDS011;2815;54.094;12.112;2023-02-15T11:45:56;64.32;;;19.92;;
5585;SDS011;2815;54.094;12.112;2023-02-15T11:48:25;62.20;;;20.25;;
5585;SDS011;2815;54.094;12.112;2023-02-15T11:50:53;66.38;;;20.58;;
5585;SDS011;2815;54.094;12.112;2023-02-15T11:53:21;75.00;;;23.27;;
5585;SDS011;2815;54.094;12.112;2023-02-15T11:55:51;60.80;;;19.63;;
5585;SDS011;2815;54.094;12.112;2023-02-15T11:58:22;55.20;;;18.73;;
5585;SDS011;2815;54.094;12.112;2023-02-15T12:00:55;51.22;;;16.92;;
5585;SDS011;2815;54.094;12.112;2023-02-15T12:03:27;47.97;;;19.05;;
5585;SDS011;2815;54.094;12.112;2023-02-15T12:06:01;69.65;;;21.35;;
5585;SDS011;2815;54.094;12.112;2023-02-15T12:08:32;59.33;;;20.48;;
5585;SDS011;2815;54.094;12.112;2023-02-15T12:11:06;66.85;;;21.80;;
5585;SDS011;2815;54.094;12.112;2023-02-15T12:13:48;68.30;;;21.25;;
5585;SDS011;2815;54.094;12.112;2023-02-15T12:16:21;68.38;;;21.70;;
5585;SDS011;2815;54.094;12.112;2023-02-15T12:18:51;64.80;;;21.95;;
5585;SDS011;2815;54.094;12.112;2023-02-15T12:21:24;64.05;;;20.45;;
5585;SDS011;2815;54.094;12.112;2023-02-15T12:23:54;66.50;;;22.20;;
5585;SDS011;2815;54.094;12.112;2023-02-15T12:26:24;74.43;;;24.40;;
5585;SDS011;2815;54.094;12.112;2023-02-15T12:28:53;64.38;;;22.30;;
5585;SDS011;2815;54.094;12.112;2023-02-15T12:31:26;70.07;;;21.33;;
5585;SDS011;2815;54.094;12.112;2023-02-15T12:33:57;36.97;;;14.27;;
5585;SDS011;2815;54.094;12.112;2023-02-15T12:36:29;61.50;;;19.98;;
5585;SDS011;2815;54.094;12.112;2023-02-15T12:39:16;60.22;;;20.52;;
5585;SDS011;2815;54.094;12.112;2023-02-15T12:41:56;56.38;;;17.63;;
5585;SDS011;2815;54.094;12.112;2023-02-15T12:44:26;60.45;;;20.98;;
5585;SDS011;2815;54.094;12.112;2023-02-15T12:46:56;59.83;;;19.10;;
5585;SDS011;2815;54.094;12.112;2023-02-15T12:49:28;68.60;;;19.77;;
5585;SDS011;2815;54.094;12.112;2023-02-15T12:51:57;52.35;;;18.05;;
5585;SDS011;2815;54.094;12.112;2023-02-15T12:54:35;51.53;;;18.27;;
5585;SDS011;2815;54.094;12.112;2023-02-15T12:57:13;54.60;;;18.13;;
5585;SDS011;2815;54.094;12.112;2023-02-15T12:59:49;53.88;;;18.60;;
5585;SDS011;2815;54.094;12.112;2023-02-15T13:02:20;62.30;;;20.45;;
5585;SDS011;2815;54.094;12.112;2023-02-15T13:04:52;62.13;;;18.05;;
5585;SDS011;2815;54.094;12.112;2023-02-15T13:07:21;63.10;;;19.23;;
5585;SDS011;2815;54.094;12.112;2023-02-15T13:09:49;64.25;;;20.15;;
5585;SDS011;2815;54.094;12.112;2023-02-15T13:12:18;75.78;;;23.13;;
5585;SDS011;2815;54.094;12.112;2023-02-15T13:14:49;65.05;;;20.33;;
5585;SDS011;2815;54.094;12.112;2023-02-15T13:17:19;64.45;;;20.88;;
5585;SDS011;2815;54.094;12.112;2023-02-15T13:19:59;74.47;;;21.58;;
5585;SDS011;2815;54.094;12.112;2023-02-15T13:22:32;73.78;;;23.08;;
5585;SDS011;2815;54.094;12.112;2023-02-15T13:25:05;68.18;;;20.02;;
5585;SDS011;2815;54.094;12.112;2023-02-15T13:27:39;58.05;;;18.92;;
5585;SDS011;2815;54.094;12.112;2023-02-15T13:30:20;56.75;;;17.55;;
5585;SDS011;2815;54.094;12.112;2023-02-15T13:32:52;59.57;;;19.53;;
5585;SDS011;2815;54.094;12.112;2023-02-15T13:35:24;51.40;;;17.73;;
5585;SDS011;2815;54.094;12.112;2023-02-15T13:38:00;62.10;;;19.75;;
5585;SDS011;2815;54.094;12.112;2023-02-15T13:40:33;61.92;;;19.15;;
5585;SDS011;2815;54.094;12.112;2023-02-15T13:43:06;64.87;;;20.30;;
5585;SDS011;2815;54.094;12.112;2023-02-15T13:45:46;56.80;;;20.52;;
5585;SDS011;2815;54.094;12.112;2023-02-15T13:48:25;59.35;;;18.75;;
5585;SDS011;2815;54.094;12.112;2023-02-15T13:51:15;57.45;;;19.60;;
5585;SDS011;2815;54.094;12.112;2023-02-15T13:53:55;64.07;;;19.65;;
5585;SDS011;2815;54.094;12.112;2023-02-15T13:56:33;55.42;;;17.55;;
5585;SDS011;2815;54.094;12.112;2023-02-15T13:59:15;60.67;;;19.77;;
5585;SDS011;2815;54.094;12.112;2023-02-15T14:01:51;48.35;;;16.75;;
5585;SDS011;2815;54.094;12.112;2023-02-15T14:07:20;51.55;;;17.13;;
5585;SDS011;2815;54.094;12.112;2023-02-15T14:09:55;47.42;;;17.08;;
5585;SDS011;2815;54.094;12.112;2023-02-15T14:12:34;57.47;;;19.27;;
5585;SDS011;2815;54.094;12.112;2023-02-15T14:15:12;51.47;;;18.60;;
5585;SDS011;2815;54.094;12.112;2023-02-15T14:17:49;49.90;;;18.58;;
5585;SDS011;2815;54.094;12.112;2023-02-15T14:20:24;42.00;;;15.85;;
5585;SDS011;2815;54.094;12.112;2023-02-15T14:22:58;43.35;;;16.25;;
5585;SDS011;2815;54.094;12.112;2023-02-15T14:25:30;50.40;;;17.92;;
5585;SDS011;2815;54.094;12.112;2023-02-15T14:28:03;51.22;;;18.83;;
5585;SDS011;2815;54.094;12.112;2023-02-15T14:30:36;51.08;;;17.08;;
5585;SDS011;2815;54.094;12.112;2023-02-15T14:33:06;48.50;;;17.38;;
5585;SDS011;2815;54.094;12.112;2023-02-15T14:35:35;52.33;;;17.75;;
5585;SDS011;2815;54.094;12.112;2023-02-15T14:38:06;51.67;;;17.73;;
5585;SDS011;2815;54.094;12.112;2023-02-15T14:40:41;49.10;;;17.52;;
5585;SDS011;2815;54.094;12.112;2023-02-15T14:43:33;56.17;;;17.70;;
5585;SDS011;2815;54.094;12.112;2023-02-15T14:46:07;49.30;;;17.67;;
5585;SDS011;2815;54.094;12.112;2023-02-15T14:48:38;47.92;;;17.98;;
5585;SDS011;2815;54.094;12.112;2023-02-15T14:51:09;52.40;;;18.70;;
5585;SDS011;2815;54.094;12.112;2023-02-15T14:53:39;49.15;;;18.33;;
5585;SDS011;2815;54.094;12.112;2023-02-15T14:58:58;48.05;;;17.55;;
5585;SDS011;2815;54.094;12.112;2023-02-15T15:01:28;42.13;;;16.67;;
5585;SDS011;2815;54.094;12.112;2023-02-15T15:03:59;44.25;;;17.02;;
5585;SDS011;2815;54.094;12.112;2023-02-15T15:06:29;42.17;;;15.15;;
5585;SDS011;2815;54.094;12.112;2023-02-15T15:09:05;58.15;;;18.38;;
5585;SDS011;2815;54.094;12.112;2023-02-15T15:11:42;54.90;;;18.95;;
5585;SDS011;2815;54.094;12.112;2023-02-15T15:17:08;47.53;;;16.70;;
5585;SDS011;2815;54.094;12.112;2023-02-15T15:22:31;44.38;;;15.65;;
5585;SDS011;2815;54.094;12.112;2023-02-15T15:25:01;40.03;;;14.80;;
5585;SDS011;2815;54.094;12.112;2023-02-15T15:27:39;52.90;;;18.90;;